createdAt,value
2023-03-01T00:01:50.742Z,12.37
2023-03-01T00:04:19.261Z,12.50
2023-03-01T00:06:48.401Z,13.40
2023-03-01T00:09:16.850Z,13.40
2023-03-01T00:11:45.738Z,13.30
2023-03-01T00:14:14.713Z,12.90
2023-03-01T00:16:45.079Z,12.17
2023-03-01T00:19:21.038Z,12.77
2023-03-01T00:21:49.449Z,12.17
2023-03-01T00:24:18.131Z,11.73
2023-03-01T00:26:47.543Z,12.77
2023-03-01T00:29:15.943Z,12.47
2023-03-01T00:31:44.200Z,12.00
2023-03-01T00:34:13.900Z,12.33
2023-03-01T00:36:42.109Z,12.80
2023-03-01T00:39:14.491Z,11.57
2023-03-01T00:41:43.148Z,12.03
2023-03-01T00:44:12.028Z,12.40
2023-03-01T00:46:40.661Z,12.50
2023-03-01T00:49:09.027Z,11.80
2023-03-01T00:51:40.362Z,12.73
2023-03-01T00:54:10.172Z,12.50
2023-03-01T00:56:38.426Z,12.33
2023-03-01T00:59:06.640Z,13.30
2023-03-01T01:01:34.907Z,12.67
2023-03-01T01:04:05.993Z,12.20
2023-03-01T01:06:39.181Z,12.93
2023-03-01T01:09:09.207Z,12.30
2023-03-01T01:11:38.392Z,11.97
2023-03-01T01:14:06.706Z,11.40
2023-03-01T01:16:35.006Z,12.27
2023-03-01T01:19:03.519Z,12.87
2023-03-01T01:21:32.281Z,11.17
2023-03-01T01:24:02.088Z,11.87
2023-03-01T01:26:34.107Z,12.63
2023-03-01T01:29:04.464Z,11.53
2023-03-01T01:31:34.023Z,12.27
2023-03-01T01:34:04.028Z,12.20
2023-03-01T01:36:33.109Z,11.53
2023-03-01T01:39:03.366Z,10.90
2023-03-01T01:41:32.423Z,11.97
2023-03-01T01:44:19.869Z,11.30
2023-03-01T01:46:53.016Z,12.20
2023-03-01T01:49:34.226Z,12.13
2023-03-01T01:52:12.534Z,12.40
2023-03-01T01:54:52.955Z,11.63
2023-03-01T01:57:24.806Z,12.23
2023-03-01T01:59:56.918Z,12.73
2023-03-01T02:02:25.809Z,12.60
2023-03-01T02:05:04.902Z,11.93
2023-03-01T02:07:33.492Z,11.53
2023-03-01T02:10:04.480Z,13.30
2023-03-01T02:12:33.374Z,12.53
2023-03-01T02:15:01.723Z,11.73
2023-03-01T02:17:30.309Z,13.10
2023-03-01T02:20:14.599Z,12.53
2023-03-01T02:22:45.933Z,12.33
2023-03-01T02:25:27.895Z,12.00
2023-03-01T02:28:08.771Z,13.27
2023-03-01T02:30:58.664Z,12.20
2023-03-01T02:33:27.324Z,12.60
2023-03-01T02:35:57.345Z,12.83
2023-03-01T02:38:26.336Z,12.00
2023-03-01T02:40:55.926Z,12.43
2023-03-01T02:43:30.055Z,13.13
2023-03-01T02:46:01.946Z,12.33
2023-03-01T02:48:30.188Z,13.37
2023-03-01T02:51:09.663Z,12.63
2023-03-01T02:53:44.342Z,12.23
2023-03-01T02:56:13.971Z,12.40
2023-03-01T02:58:46.651Z,12.37
2023-03-01T03:01:17.111Z,12.90
2023-03-01T03:03:45.968Z,11.83
2023-03-01T03:06:15.490Z,12.90
2023-03-01T03:08:45.020Z,12.60
2023-03-01T03:11:13.339Z,12.97
2023-03-01T03:13:49.025Z,12.73
2023-03-01T03:16:19.069Z,11.90
2023-03-01T03:18:47.459Z,12.20
2023-03-01T03:21:17.276Z,12.20
2023-03-01T03:23:45.853Z,14.10
2023-03-01T03:26:16.126Z,11.70
2023-03-01T03:28:44.416Z,12.53
2023-03-01T03:31:12.725Z,12.73
2023-03-01T03:33:42.369Z,12.97
2023-03-01T03:36:13.851Z,12.40
2023-03-01T03:38:42.276Z,13.13
2023-03-01T03:41:10.988Z,12.90
2023-03-01T03:43:41.586Z,12.97
2023-03-01T03:46:10.532Z,13.23
2023-03-01T03:48:42.866Z,14.57
2023-03-01T03:51:13.248Z,14.70
2023-03-01T03:53:41.833Z,12.63
2023-03-01T03:56:11.034Z,12.97
2023-03-01T03:58:39.578Z,13.70
2023-03-01T04:01:09.071Z,13.33
2023-03-01T04:03:37.473Z,12.77
2023-03-01T04:06:07.922Z,12.67
2023-03-01T04:08:36.289Z,13.07
2023-03-01T04:11:20.429Z,13.83
2023-03-01T04:13:48.764Z,13.40
2023-03-01T04:16:17.154Z,13.53
2023-03-01T04:18:45.456Z,13.03
2023-03-01T04:21:15.748Z,13.03
2023-03-01T04:23:44.224Z,14.77
2023-03-01T04:26:12.541Z,13.67
2023-03-01T04:28:46.841Z,14.23
2023-03-01T04:31:18.555Z,14.07
2023-03-01T04:33:50.011Z,12.83
2023-03-01T04:36:21.440Z,13.03
2023-03-01T04:38:49.902Z,12.87
2023-03-01T04:41:20.844Z,14.30
2023-03-01T04:43:50.315Z,13.50
2023-03-01T04:46:22.569Z,12.93
2023-03-01T04:48:51.291Z,12.50
2023-03-01T04:51:20.941Z,12.87
2023-03-01T04:53:49.758Z,13.27
2023-03-01T04:56:18.998Z,13.20
2023-03-01T04:58:48.316Z,12.73
2023-03-01T05:01:19.867Z,13.87
2023-03-01T05:03:49.891Z,13.27
2023-03-01T05:06:21.742Z,13.50
2023-03-01T05:08:50.077Z,14.63
2023-03-01T05:11:18.354Z,13.20
2023-03-01T05:13:46.640Z,13.73
2023-03-01T05:16:15.796Z,14.23
2023-03-01T05:18:44.361Z,14.50
2023-03-01T05:21:17.127Z,15.13
2023-03-01T05:23:47.889Z,14.43
2023-03-01T05:26:33.564Z,13.60
2023-03-01T05:29:02.125Z,14.63
2023-03-01T05:31:31.764Z,14.67
2023-03-01T05:34:00.243Z,15.23
2023-03-01T05:36:28.682Z,15.73
2023-03-01T05:38:58.533Z,15.50
2023-03-01T05:41:26.764Z,14.20
2023-03-01T05:43:55.372Z,13.80
2023-03-01T05:46:25.446Z,13.80
2023-03-01T05:48:53.818Z,13.03
2023-03-01T05:51:23.233Z,14.00
2023-03-01T05:53:51.510Z,14.37
2023-03-01T05:56:23.301Z,14.43
2023-03-01T05:58:51.644Z,13.20
2023-03-01T06:01:19.947Z,13.90
2023-03-01T06:03:48.349Z,13.70
2023-03-01T06:06:16.552Z,14.90
2023-03-01T06:08:44.820Z,13.97
2023-03-01T06:11:13.062Z,14.47
2023-03-01T06:13:43.970Z,15.73
2023-03-01T06:16:13.116Z,14.70
2023-03-01T06:18:42.501Z,14.67
2023-03-01T06:21:11.470Z,15.27
2023-03-01T06:23:39.780Z,14.80
2023-03-01T06:26:09.186Z,16.60
2023-03-01T06:31:13.380Z,14.30
2023-03-01T06:33:41.667Z,14.37
2023-03-01T06:36:11.568Z,15.17
2023-03-01T06:38:41.653Z,15.97
2023-03-01T06:41:10.019Z,15.77
2023-03-01T06:43:38.297Z,14.60
2023-03-01T06:46:07.730Z,16.07
2023-03-01T06:48:37.462Z,16.47
2023-03-01T06:51:06.380Z,15.10
2023-03-01T06:53:34.648Z,16.10
2023-03-01T06:56:02.897Z,15.07
2023-03-01T06:58:31.226Z,15.60
2023-03-01T07:00:59.487Z,16.47
2023-03-01T07:03:27.976Z,16.93
2023-03-01T07:05:57.569Z,16.90
2023-03-01T07:08:25.831Z,16.60
2023-03-01T07:10:58.138Z,15.60
2023-03-01T07:13:26.623Z,14.67
2023-03-01T07:15:54.917Z,16.33
2023-03-01T07:18:23.244Z,15.97
2023-03-01T07:20:51.610Z,15.80
2023-03-01T07:23:21.305Z,17.17
2023-03-01T07:25:55.123Z,16.30
2023-03-01T07:28:24.632Z,16.80
2023-03-01T07:30:52.927Z,17.10
2023-03-01T07:33:21.522Z,15.23
2023-03-01T07:35:49.853Z,15.83
2023-03-01T07:38:18.130Z,17.23
2023-03-01T07:40:47.972Z,16.10
2023-03-01T07:43:16.255Z,16.30
2023-03-01T07:45:44.737Z,16.30
2023-03-01T07:48:13.113Z,15.97
2023-03-01T07:50:41.468Z,17.17
2023-03-01T07:53:10.270Z,15.47
2023-03-01T07:55:38.719Z,16.40
2023-03-01T07:58:08.423Z,17.07
2023-03-01T08:00:36.825Z,16.07
2023-03-01T08:03:05.259Z,17.13
2023-03-01T08:05:34.377Z,17.00
2023-03-01T08:08:02.704Z,18.53
2023-03-01T08:10:31.045Z,17.17
2023-03-01T08:12:59.317Z,18.47
2023-03-01T08:15:29.020Z,17.53
2023-03-01T08:17:57.300Z,16.93
2023-03-01T08:20:25.609Z,16.90
2023-03-01T08:22:53.909Z,17.53
2023-03-01T08:25:22.213Z,17.63
2023-03-01T08:27:50.540Z,16.00
2023-03-01T08:30:19.688Z,16.70
2023-03-01T08:32:49.399Z,17.87
2023-03-01T08:35:17.952Z,16.67
2023-03-01T08:37:46.444Z,17.33
2023-03-01T08:40:15.947Z,16.40
2023-03-01T08:42:44.806Z,16.60
2023-03-01T08:45:15.252Z,16.83
2023-03-01T08:47:43.664Z,17.73
2023-03-01T08:50:14.055Z,18.13
2023-03-01T08:52:42.448Z,17.77
2023-03-01T08:55:11.662Z,18.07
2023-03-01T08:57:40.045Z,21.17
2023-03-01T09:00:10.658Z,22.60
2023-03-01T09:02:39.763Z,18.57
2023-03-01T09:05:08.995Z,17.27
2023-03-01T09:07:38.803Z,17.53
2023-03-01T09:10:08.587Z,17.47
2023-03-01T09:12:37.052Z,16.63
2023-03-01T09:15:06.409Z,17.60
2023-03-01T09:17:34.856Z,16.87
2023-03-01T09:20:06.660Z,16.83
2023-03-01T09:22:36.110Z,15.63
2023-03-01T09:25:06.929Z,16.17
2023-03-01T09:27:35.329Z,15.23
2023-03-01T09:30:03.814Z,15.23
2023-03-01T09:32:33.021Z,15.73
2023-03-01T09:35:05.894Z,15.23
2023-03-01T09:37:35.006Z,14.67
2023-03-01T09:40:06.345Z,16.07
2023-03-01T09:42:37.606Z,16.10
2023-03-01T09:45:09.379Z,15.77
2023-03-01T09:47:38.982Z,15.13
2023-03-01T09:50:15.728Z,15.83
2023-03-01T09:52:48.122Z,14.77
2023-03-01T09:55:32.346Z,15.40
2023-03-01T09:58:13.091Z,15.00
2023-03-01T10:00:45.904Z,14.93
2023-03-01T10:03:20.178Z,15.20
2023-03-01T10:06:00.157Z,16.00
2023-03-01T10:08:42.763Z,15.17
2023-03-01T10:11:25.244Z,15.40
2023-03-01T10:14:01.159Z,16.23
2023-03-01T10:16:40.069Z,16.13
2023-03-01T10:19:13.320Z,15.70
2023-03-01T10:21:47.317Z,15.27
2023-03-01T10:24:19.984Z,15.37
2023-03-01T10:26:57.612Z,15.87
2023-03-01T10:29:33.793Z,15.10
2023-03-01T10:32:02.341Z,15.23
2023-03-01T10:34:34.305Z,15.87
2023-03-01T10:37:13.804Z,15.13
2023-03-01T10:40:06.784Z,14.30
2023-03-01T10:42:41.165Z,14.87
2023-03-01T10:45:32.774Z,14.50
2023-03-01T10:48:17.001Z,14.67
2023-03-01T10:50:47.508Z,14.70
2023-03-01T10:53:30.157Z,15.30
2023-03-01T10:56:05.465Z,15.40
2023-03-01T10:58:36.974Z,14.93
2023-03-01T11:01:08.009Z,15.93
2023-03-01T11:03:39.371Z,15.23
2023-03-01T11:06:23.397Z,14.53
2023-03-01T11:08:53.024Z,14.70
2023-03-01T11:11:33.501Z,14.13
2023-03-01T11:14:25.027Z,14.37
2023-03-01T11:17:02.393Z,14.63
2023-03-01T11:19:30.752Z,15.23
2023-03-01T11:22:05.677Z,14.10
2023-03-01T11:24:43.594Z,15.00
2023-03-01T11:27:23.825Z,14.10
2023-03-01T11:29:58.346Z,13.97
2023-03-01T11:32:32.208Z,14.23
2023-03-01T11:35:04.886Z,14.00
2023-03-01T11:37:40.586Z,14.00
2023-03-01T11:40:17.817Z,14.33
2023-03-01T11:43:01.407Z,13.87
2023-03-01T11:45:44.951Z,13.90
2023-03-01T11:48:49.303Z,13.23
2023-03-01T11:51:27.208Z,13.10
2023-03-01T11:54:16.737Z,14.47
2023-03-01T11:56:52.629Z,13.97
2023-03-01T11:59:58.331Z,13.77
2023-03-01T12:03:03.276Z,14.20
2023-03-01T12:06:16.625Z,14.00
2023-03-01T12:08:49.599Z,14.20
2023-03-01T12:11:35.023Z,13.13
2023-03-01T12:14:34.583Z,14.07
2023-03-01T12:17:22.949Z,13.37
2023-03-01T12:20:24.248Z,13.30
2023-03-01T12:23:41.939Z,13.00
2023-03-01T12:26:16.357Z,12.87
2023-03-01T12:29:01.306Z,13.83
2023-03-01T12:31:48.991Z,12.63
2023-03-01T12:34:54.902Z,12.40
2023-03-01T12:37:33.630Z,13.50
2023-03-01T12:40:25.650Z,13.27
2023-03-01T12:43:06.796Z,13.03
2023-03-01T12:45:51.092Z,12.57
2023-03-01T12:48:43.245Z,13.77
2023-03-01T12:51:17.338Z,13.47
2023-03-01T12:53:50.950Z,13.73
2023-03-01T12:56:24.770Z,12.40
2023-03-01T12:59:02.621Z,13.83
2023-03-01T13:01:43.158Z,13.47
2023-03-01T13:04:39.664Z,13.43
2023-03-01T13:07:25.752Z,12.33
2023-03-01T13:10:08.889Z,12.37
2023-03-01T13:12:55.552Z,12.60
2023-03-01T13:15:38.363Z,12.73
2023-03-01T13:18:30.840Z,12.07
2023-03-01T13:21:02.240Z,12.37
2023-03-01T13:23:35.276Z,11.80
2023-03-01T13:26:12.295Z,11.70
2023-03-01T13:29:03.046Z,10.30
2023-03-01T13:32:02.689Z,11.07
2023-03-01T13:34:56.686Z,10.67
2023-03-01T13:37:38.434Z,11.03
2023-03-01T13:40:59.780Z,13.07
2023-03-01T13:43:35.278Z,14.57
2023-03-01T13:46:10.686Z,10.53
2023-03-01T13:48:40.158Z,12.07
2023-03-01T13:51:12.546Z,22.63
2023-03-01T13:53:44.932Z,11.67
2023-03-01T13:56:17.326Z,10.40
2023-03-01T13:58:56.735Z,10.13
2023-03-01T14:01:31.826Z,9.70
2023-03-01T14:04:01.067Z,10.60
2023-03-01T14:06:32.244Z,9.80
2023-03-01T14:09:12.241Z,10.80
2023-03-01T14:12:17.508Z,11.30
2023-03-01T14:14:59.165Z,13.63
2023-03-01T14:18:01.721Z,12.03
2023-03-01T14:20:32.673Z,13.03
2023-03-01T14:23:04.852Z,12.30
2023-03-01T14:25:36.398Z,13.30
2023-03-01T14:28:14.136Z,12.43
2023-03-01T14:30:46.182Z,12.77
2023-03-01T14:33:25.402Z,12.80
2023-03-01T14:35:59.585Z,12.47
2023-03-01T14:38:35.821Z,12.27
2023-03-01T14:41:10.240Z,11.90
2023-03-01T14:43:40.093Z,12.77
2023-03-01T14:46:21.904Z,12.73
2023-03-01T14:48:52.984Z,12.30
2023-03-01T14:51:21.276Z,12.27
2023-03-01T14:53:51.429Z,11.70
2023-03-01T14:56:20.473Z,11.53
2023-03-01T14:58:53.717Z,12.47
2023-03-01T15:01:24.234Z,12.43
2023-03-01T15:03:54.065Z,12.97
2023-03-01T15:06:25.194Z,11.37
2023-03-01T15:08:57.899Z,11.87
2023-03-01T15:11:31.442Z,12.93
2023-03-01T15:14:00.912Z,13.67
2023-03-01T15:16:33.254Z,11.97
2023-03-01T15:19:05.073Z,12.00
2023-03-01T15:21:36.090Z,11.77
2023-03-01T15:24:12.760Z,11.53
2023-03-01T15:26:45.211Z,11.40
2023-03-01T15:29:20.259Z,12.03
2023-03-01T15:32:00.340Z,11.47
2023-03-01T15:34:31.044Z,13.50
2023-03-01T15:37:01.615Z,13.83
2023-03-01T15:39:39.374Z,13.50
2023-03-01T15:42:12.415Z,13.33
2023-03-01T15:44:45.932Z,15.03
2023-03-01T15:47:33.006Z,14.60
2023-03-01T15:50:03.418Z,12.73
2023-03-01T15:52:40.217Z,14.90
2023-03-01T15:55:18.990Z,13.47
2023-03-01T15:57:47.749Z,12.70
2023-03-01T16:00:18.500Z,13.60
2023-03-01T16:02:48.932Z,11.67
2023-03-01T16:05:25.391Z,11.33
2023-03-01T16:07:53.877Z,10.80
2023-03-01T16:10:23.485Z,9.83
2023-03-01T16:12:53.494Z,9.67
2023-03-01T16:15:25.028Z,9.80
2023-03-01T16:17:54.721Z,9.80
2023-03-01T16:20:28.582Z,10.20
2023-03-01T16:23:01.047Z,10.80
2023-03-01T16:25:29.671Z,11.23
2023-03-01T16:27:59.512Z,10.80
2023-03-01T16:30:27.881Z,10.87
2023-03-01T16:32:57.647Z,10.90
2023-03-01T16:35:26.054Z,11.10
2023-03-01T16:37:54.906Z,11.07
2023-03-01T16:40:26.936Z,11.60
2023-03-01T16:43:00.311Z,10.77
2023-03-01T16:45:30.460Z,12.53
2023-03-01T16:48:00.439Z,11.70
2023-03-01T16:50:28.775Z,11.73
2023-03-01T16:52:57.082Z,10.53
2023-03-01T16:55:25.401Z,11.47
2023-03-01T16:57:53.712Z,11.67
2023-03-01T17:00:23.549Z,10.90
2023-03-01T17:02:52.821Z,11.87
2023-03-01T17:05:24.907Z,11.03
2023-03-01T17:07:55.749Z,10.47
2023-03-01T17:10:24.142Z,11.27
2023-03-01T17:12:53.396Z,11.00
2023-03-01T17:15:21.696Z,13.00
2023-03-01T17:17:51.841Z,14.27
2023-03-01T17:20:21.878Z,41.57
2023-03-01T17:22:50.193Z,34.83
2023-03-01T17:25:18.556Z,21.33
2023-03-01T17:27:46.942Z,12.50
2023-03-01T17:30:16.832Z,12.80
2023-03-01T17:32:45.631Z,14.20
2023-03-01T17:35:14.213Z,11.07
2023-03-01T17:37:46.532Z,11.67
2023-03-01T17:40:15.307Z,10.40
2023-03-01T17:42:43.625Z,10.23
2023-03-01T17:45:12.791Z,11.93
2023-03-01T17:47:41.121Z,12.23
2023-03-01T17:50:11.035Z,10.50
2023-03-01T17:52:39.290Z,10.33
2023-03-01T17:55:10.513Z,9.50
2023-03-01T17:57:40.750Z,11.07
2023-03-01T18:00:13.168Z,10.70
2023-03-01T18:02:41.528Z,10.03
2023-03-01T18:05:10.950Z,10.67
2023-03-01T18:07:39.257Z,11.07
2023-03-01T18:10:10.679Z,11.67
2023-03-01T18:12:39.231Z,11.90
2023-03-01T18:15:09.337Z,9.93
2023-03-01T18:17:37.595Z,10.40
2023-03-01T18:20:07.837Z,9.73
2023-03-01T18:22:37.807Z,9.77
2023-03-01T18:25:08.674Z,9.83
2023-03-01T18:27:37.832Z,9.30
2023-03-01T18:30:08.738Z,10.57
2023-03-01T18:32:37.496Z,9.70
2023-03-01T18:35:07.081Z,9.90
2023-03-01T18:37:35.350Z,11.03
2023-03-01T18:40:04.687Z,10.50
2023-03-01T18:42:34.332Z,11.27
2023-03-01T18:45:02.563Z,11.00
2023-03-01T18:47:30.836Z,11.23
2023-03-01T18:49:59.077Z,11.37
2023-03-01T18:52:27.366Z,12.07
2023-03-01T18:54:56.522Z,11.80
2023-03-01T18:57:24.737Z,11.67
2023-03-01T18:59:54.380Z,11.00
2023-03-01T19:02:22.843Z,11.60
2023-03-01T19:04:51.933Z,11.50
2023-03-01T19:07:20.528Z,11.60
2023-03-01T19:09:48.975Z,11.40
2023-03-01T19:12:17.249Z,12.23
2023-03-01T19:14:45.519Z,11.13
2023-03-01T19:17:15.810Z,10.80
2023-03-01T19:19:44.136Z,10.50
2023-03-01T19:22:12.440Z,10.07
2023-03-01T19:24:40.708Z,11.07
2023-03-01T19:27:09.002Z,10.10
2023-03-01T19:29:37.262Z,11.00
2023-03-01T19:32:05.868Z,11.50
2023-03-01T19:34:37.104Z,11.37
2023-03-01T19:37:05.569Z,11.97
2023-03-01T19:39:33.795Z,11.60
2023-03-01T19:42:02.043Z,11.53
2023-03-01T19:44:30.381Z,11.90
2023-03-01T19:46:59.027Z,10.97
2023-03-01T19:49:29.682Z,11.37
2023-03-01T19:51:59.333Z,11.60
2023-03-01T19:54:27.563Z,10.80
2023-03-01T19:56:55.888Z,10.43
2023-03-01T19:59:25.464Z,10.23
2023-03-01T20:01:54.371Z,10.83
2023-03-01T20:04:22.815Z,11.20
2023-03-01T20:06:51.233Z,11.20
2023-03-01T20:09:22.256Z,10.33
2023-03-01T20:11:51.302Z,10.70
2023-03-01T20:14:22.257Z,10.40
2023-03-01T20:16:52.057Z,10.70
2023-03-01T20:19:20.868Z,10.47
2023-03-01T20:21:49.133Z,10.70
2023-03-01T20:24:17.389Z,11.07
2023-03-01T20:26:47.078Z,11.43
2023-03-01T20:32:00.933Z,11.87
2023-03-01T20:34:29.546Z,11.37
2023-03-01T20:36:57.868Z,10.57
2023-03-01T20:39:26.171Z,11.47
2023-03-01T20:41:54.411Z,11.73
2023-03-01T20:44:22.742Z,11.10
2023-03-01T20:46:51.130Z,11.33
2023-03-01T20:49:21.535Z,11.43
2023-03-01T20:51:49.856Z,11.47
2023-03-01T20:54:18.162Z,11.33
2023-03-01T20:56:46.432Z,12.17
2023-03-01T20:59:15.904Z,11.00
2023-03-01T21:01:44.162Z,11.80
2023-03-01T21:04:13.143Z,10.73
2023-03-01T21:06:42.944Z,11.10
2023-03-01T21:09:11.901Z,11.33
2023-03-01T21:11:40.276Z,11.07
2023-03-01T21:14:08.524Z,11.80
2023-03-01T21:16:37.276Z,11.40
2023-03-01T21:19:05.622Z,12.83
2023-03-01T21:21:33.863Z,11.50
2023-03-01T21:24:03.705Z,11.20
2023-03-01T21:26:32.526Z,10.53
2023-03-01T21:29:02.069Z,11.47
2023-03-01T21:31:33.941Z,13.63
2023-03-01T21:34:05.750Z,14.40
2023-03-01T21:36:35.791Z,14.63
2023-03-01T21:39:07.406Z,16.30
2023-03-01T21:41:38.107Z,13.67
2023-03-01T21:44:07.786Z,12.73
2023-03-01T21:46:39.402Z,14.27
2023-03-01T21:49:09.149Z,11.60
2023-03-01T21:51:38.208Z,10.80
2023-03-01T21:54:08.583Z,10.80
2023-03-01T21:56:39.165Z,12.70
2023-03-01T21:59:16.272Z,12.40
2023-03-01T22:01:45.034Z,11.63
2023-03-01T22:04:13.553Z,12.73
2023-03-01T22:06:44.669Z,11.73
2023-03-01T22:09:17.686Z,11.17
2023-03-01T22:11:49.904Z,11.07
2023-03-01T22:14:20.311Z,11.27
2023-03-01T22:16:51.595Z,11.90
2023-03-01T22:19:20.503Z,11.07
2023-03-01T22:21:50.984Z,11.80
2023-03-01T22:24:26.956Z,11.37
2023-03-01T22:26:55.531Z,11.90
2023-03-01T22:29:27.612Z,12.10
2023-03-01T22:31:57.711Z,11.57
2023-03-01T22:34:26.199Z,11.87
2023-03-01T22:36:54.487Z,12.27
2023-03-01T22:39:24.128Z,10.90
2023-03-01T22:41:52.403Z,11.93
2023-03-01T22:44:23.587Z,12.10
2023-03-01T22:46:52.535Z,12.70
2023-03-01T22:49:22.332Z,12.67
2023-03-01T22:51:51.912Z,11.90
2023-03-01T22:54:21.044Z,12.27
2023-03-01T22:56:50.942Z,12.17
2023-03-01T22:59:23.956Z,10.97
2023-03-01T23:01:53.133Z,12.07
2023-03-01T23:04:22.851Z,11.77
2023-03-01T23:06:53.751Z,11.80
2023-03-01T23:09:24.814Z,11.47
2023-03-01T23:11:55.229Z,11.27
2023-03-01T23:14:23.652Z,11.53
2023-03-01T23:16:53.985Z,13.07
2023-03-01T23:19:22.693Z,12.17
2023-03-01T23:21:51.122Z,12.40
2023-03-01T23:24:22.300Z,11.97
2023-03-01T23:26:53.422Z,11.60
2023-03-01T23:29:23.844Z,12.37
2023-03-01T23:31:52.352Z,12.57
2023-03-01T23:34:21.076Z,13.77
2023-03-01T23:36:49.363Z,12.60
2023-03-01T23:39:17.670Z,13.00
2023-03-01T23:41:46.052Z,12.10
2023-03-01T23:44:17.799Z,12.10
2023-03-01T23:46:49.219Z,12.53
2023-03-01T23:49:21.847Z,12.50
2023-03-01T23:51:50.547Z,12.13
2023-03-01T23:54:22.018Z,12.60
2023-03-01T23:56:50.340Z,12.50
2023-03-01T23:59:21.915Z,12.50
